createdAt,value
2023-05-21T00:00:40.826Z,18.19
2023-05-21T00:03:13.791Z,18.18
2023-05-21T00:05:44.307Z,18.15
2023-05-21T00:08:12.304Z,18.14
2023-05-21T00:10:40.058Z,18.12
2023-05-21T00:13:09.082Z,18.12
2023-05-21T00:15:37.117Z,18.11
2023-05-21T00:18:05.168Z,18.08
2023-05-21T00:20:33.221Z,18.07
2023-05-21T00:23:03.903Z,18.02
2023-05-21T00:25:31.772Z,18.03
2023-05-21T00:27:59.543Z,18.02
2023-05-21T00:30:27.296Z,18.01
2023-05-21T00:32:55.083Z,17.99
2023-05-21T00:35:22.852Z,17.96
2023-05-21T00:37:52.060Z,17.95
2023-05-21T00:40:21.758Z,17.93
2023-05-21T00:42:49.885Z,17.91
2023-05-21T00:45:17.626Z,17.91
2023-05-21T00:47:48.386Z,17.88
2023-05-21T00:50:17.552Z,17.86
2023-05-21T00:52:45.837Z,17.85
2023-05-21T00:55:13.732Z,17.83
2023-05-21T00:57:42.999Z,17.80
2023-05-21T01:00:12.125Z,17.79
2023-05-21T01:02:40.124Z,17.78
2023-05-21T01:05:08.332Z,17.76
2023-05-21T01:07:39.147Z,17.69
2023-05-21T01:10:09.343Z,17.73
2023-05-21T01:12:40.431Z,17.72
2023-05-21T01:15:11.356Z,17.71
2023-05-21T01:17:40.189Z,17.69
2023-05-21T01:20:11.213Z,17.67
2023-05-21T01:22:44.585Z,17.66
2023-05-21T01:25:15.109Z,17.65
2023-05-21T01:27:42.879Z,17.64
2023-05-21T01:30:11.651Z,17.62
2023-05-21T01:32:46.518Z,17.60
2023-05-21T01:35:18.469Z,17.58
2023-05-21T01:37:50.244Z,17.58
2023-05-21T01:40:27.224Z,17.56
2023-05-21T01:42:55.207Z,17.54
2023-05-21T01:45:25.019Z,17.53
2023-05-21T01:47:56.176Z,17.52
2023-05-21T01:50:25.735Z,17.51
2023-05-21T01:52:56.869Z,17.47
2023-05-21T01:55:25.972Z,17.47
2023-05-21T01:57:53.922Z,17.47
2023-05-21T02:00:22.566Z,17.44
2023-05-21T02:02:50.474Z,17.44
2023-05-21T02:05:18.796Z,17.42
2023-05-21T02:07:47.438Z,17.41
2023-05-21T02:10:15.936Z,17.39
2023-05-21T02:12:45.125Z,17.37
2023-05-21T02:15:14.282Z,17.36
2023-05-21T02:17:42.571Z,17.35
2023-05-21T02:20:12.182Z,17.33
2023-05-21T02:22:40.362Z,17.31
2023-05-21T02:25:09.913Z,17.28
2023-05-21T02:27:38.712Z,17.28
2023-05-21T02:30:09.911Z,17.27
2023-05-21T02:32:39.798Z,17.25
2023-05-21T02:35:08.094Z,17.24
2023-05-21T02:37:36.559Z,17.22
2023-05-21T02:40:05.942Z,17.20
2023-05-21T02:42:33.771Z,17.19
2023-05-21T02:45:01.555Z,17.17
2023-05-21T02:47:30.683Z,17.15
2023-05-21T02:50:00.824Z,17.15
2023-05-21T02:52:28.800Z,17.12
2023-05-21T02:54:56.666Z,17.10
2023-05-21T02:57:24.392Z,17.09
2023-05-21T02:59:52.132Z,17.08
2023-05-21T03:02:20.020Z,17.08
2023-05-21T03:04:50.816Z,17.06
2023-05-21T03:07:19.793Z,17.05
2023-05-21T03:09:48.067Z,17.04
2023-05-21T03:12:15.859Z,17.03
2023-05-21T03:14:44.156Z,17.03
2023-05-21T03:17:14.094Z,17.01
2023-05-21T03:19:42.471Z,17.01
2023-05-21T03:22:12.286Z,16.99
2023-05-21T03:24:41.419Z,16.98
2023-05-21T03:27:09.312Z,16.97
2023-05-21T03:29:37.651Z,16.96
2023-05-21T03:32:06.303Z,16.96
2023-05-21T03:34:35.653Z,16.87
2023-05-21T03:37:03.493Z,16.94
2023-05-21T03:39:32.592Z,16.94
2023-05-21T03:42:00.341Z,16.91
2023-05-21T03:44:28.065Z,16.81
2023-05-21T03:46:55.801Z,16.91
2023-05-21T03:49:23.537Z,16.89
2023-05-21T03:51:51.322Z,16.87
2023-05-21T03:54:20.121Z,16.86
2023-05-21T03:56:49.241Z,16.83
2023-05-21T03:59:16.947Z,16.82
2023-05-21T04:01:45.342Z,16.82
2023-05-21T04:04:13.248Z,16.80
2023-05-21T04:06:42.346Z,16.78
2023-05-21T04:09:10.088Z,16.76
2023-05-21T04:11:38.033Z,16.75
2023-05-21T04:14:07.283Z,16.75
2023-05-21T04:16:35.658Z,16.73
2023-05-21T04:19:03.565Z,16.73
2023-05-21T04:21:31.908Z,16.71
2023-05-21T04:24:00.779Z,16.68
2023-05-21T04:26:29.540Z,16.69
2023-05-21T04:28:57.691Z,16.68
2023-05-21T04:31:26.885Z,16.67
2023-05-21T04:33:54.725Z,16.66
2023-05-21T04:36:22.457Z,16.65
2023-05-21T04:38:50.153Z,16.64
2023-05-21T04:41:19.002Z,16.63
2023-05-21T04:43:46.915Z,16.63
2023-05-21T04:46:14.811Z,16.60
2023-05-21T04:48:45.143Z,16.60
2023-05-21T04:51:12.877Z,16.59
2023-05-21T04:53:40.836Z,16.59
2023-05-21T04:56:09.832Z,16.59
2023-05-21T04:58:40.581Z,16.57
2023-05-21T05:01:08.976Z,16.54
2023-05-21T05:03:36.887Z,16.57
2023-05-21T05:06:07.765Z,16.56
2023-05-21T05:08:35.672Z,16.55
2023-05-21T05:11:03.461Z,16.54
2023-05-21T05:13:31.355Z,16.54
2023-05-21T05:16:00.378Z,16.53
2023-05-21T05:18:28.492Z,16.52
2023-05-21T05:20:56.283Z,16.49
2023-05-21T05:23:25.637Z,16.50
2023-05-21T05:25:53.473Z,16.49
2023-05-21T05:28:21.369Z,16.47
2023-05-21T05:30:49.154Z,16.48
2023-05-21T05:33:16.987Z,16.48
2023-05-21T05:35:44.739Z,16.48
2023-05-21T05:38:13.580Z,16.50
2023-05-21T05:40:42.672Z,16.49
2023-05-21T05:43:10.449Z,16.49
2023-05-21T05:45:38.808Z,16.49
2023-05-21T05:48:07.467Z,16.49
2023-05-21T05:50:35.325Z,16.49
2023-05-21T05:53:03.126Z,16.49
2023-05-21T05:55:31.364Z,16.48
2023-05-21T05:58:00.501Z,16.48
2023-05-21T06:00:28.377Z,16.47
2023-05-21T06:02:56.233Z,16.47
2023-05-21T06:05:24.152Z,16.47
2023-05-21T06:07:51.917Z,16.46
2023-05-21T06:10:20.595Z,16.47
2023-05-21T06:12:48.496Z,16.46
2023-05-21T06:15:19.408Z,16.46
2023-05-21T06:17:47.185Z,16.41
2023-05-21T06:20:15.063Z,16.39
2023-05-21T06:22:42.823Z,16.40
2023-05-21T06:25:11.224Z,16.42
2023-05-21T06:27:39.754Z,16.44
2023-05-21T06:30:08.645Z,16.45
2023-05-21T06:32:37.951Z,16.48
2023-05-21T06:35:06.863Z,16.48
2023-05-21T06:37:34.621Z,16.49
2023-05-21T06:40:02.518Z,16.48
2023-05-21T06:42:30.308Z,16.49
2023-05-21T06:44:58.056Z,16.51
2023-05-21T06:47:25.869Z,16.50
2023-05-21T06:49:54.967Z,16.52
2023-05-21T06:52:22.675Z,16.52
2023-05-21T06:54:50.453Z,16.44
2023-05-21T06:57:18.245Z,16.55
2023-05-21T06:59:46.010Z,16.56
2023-05-21T07:02:13.900Z,16.58
2023-05-21T07:04:41.705Z,16.60
2023-05-21T07:07:10.874Z,16.61
2023-05-21T07:09:38.649Z,16.63
2023-05-21T07:12:06.938Z,16.65
2023-05-21T07:14:34.756Z,16.66
2023-05-21T07:17:02.667Z,16.67
2023-05-21T07:19:30.558Z,16.69
2023-05-21T07:21:58.846Z,16.71
2023-05-21T07:24:28.124Z,16.72
2023-05-21T07:26:55.936Z,16.72
2023-05-21T07:29:23.738Z,16.73
2023-05-21T07:31:51.477Z,16.74
2023-05-21T07:34:19.250Z,16.75
2023-05-21T07:36:47.008Z,16.76
2023-05-21T07:39:14.913Z,16.78
2023-05-21T07:41:44.061Z,16.78
2023-05-21T07:44:11.906Z,16.81
2023-05-21T07:46:39.719Z,16.82
2023-05-21T07:49:07.554Z,16.84
2023-05-21T07:51:35.540Z,16.85
2023-05-21T07:54:03.355Z,16.86
2023-05-21T07:56:32.399Z,16.88
2023-05-21T07:59:01.720Z,16.89
2023-05-21T08:01:29.920Z,16.90
2023-05-21T08:04:00.787Z,16.92
2023-05-21T08:06:28.744Z,16.93
2023-05-21T08:08:57.365Z,16.93
2023-05-21T08:11:25.130Z,16.95
2023-05-21T08:13:52.879Z,16.98
2023-05-21T08:16:23.479Z,16.98
2023-05-21T08:18:51.486Z,17.01
2023-05-21T08:21:19.832Z,17.02
2023-05-21T08:23:47.618Z,17.05
2023-05-21T08:26:17.159Z,17.07
2023-05-21T08:28:45.065Z,17.09
2023-05-21T08:31:12.877Z,17.12
2023-05-21T08:33:51.418Z,17.16
2023-05-21T08:36:19.406Z,17.16
2023-05-21T08:38:47.164Z,17.19
2023-05-21T08:41:15.668Z,17.21
2023-05-21T08:43:44.878Z,17.22
2023-05-21T08:46:13.236Z,17.24
2023-05-21T08:48:43.461Z,17.27
2023-05-21T08:51:11.249Z,17.30
2023-05-21T08:53:39.062Z,17.33
2023-05-21T08:56:08.273Z,17.35
2023-05-21T08:58:37.703Z,17.39
2023-05-21T09:01:05.950Z,17.40
2023-05-21T09:03:34.182Z,17.44
2023-05-21T09:06:04.136Z,17.46
2023-05-21T09:08:36.485Z,17.49
2023-05-21T09:11:04.324Z,17.50
2023-05-21T09:13:35.397Z,17.54
2023-05-21T09:16:04.098Z,17.54
2023-05-21T09:18:31.870Z,17.57
2023-05-21T09:21:00.271Z,17.60
2023-05-21T09:23:30.109Z,17.61
2023-05-21T09:25:58.330Z,17.61
2023-05-21T09:28:26.372Z,17.63
2023-05-21T09:30:54.625Z,17.65
2023-05-21T09:33:26.972Z,17.66
2023-05-21T09:35:54.927Z,17.68
2023-05-21T09:38:23.651Z,17.70
2023-05-21T09:40:55.776Z,17.72
2023-05-21T09:43:23.624Z,17.73
2023-05-21T09:45:53.377Z,17.66
2023-05-21T09:48:34.627Z,17.74
2023-05-21T09:51:13.096Z,17.79
2023-05-21T09:53:51.622Z,17.80
2023-05-21T09:56:25.373Z,17.83
2023-05-21T09:58:54.825Z,17.87
2023-05-21T10:01:22.968Z,17.91
2023-05-21T10:03:54.982Z,17.89
2023-05-21T10:06:25.378Z,17.93
2023-05-21T10:08:55.988Z,17.96
2023-05-21T10:11:28.337Z,17.98
2023-05-21T10:14:03.119Z,17.98
2023-05-21T10:16:33.863Z,18.03
2023-05-21T10:19:02.087Z,18.05
2023-05-21T10:21:30.028Z,18.09
2023-05-21T10:23:58.922Z,18.13
2023-05-21T10:26:28.314Z,18.15
2023-05-21T10:29:00.053Z,18.21
2023-05-21T10:31:28.612Z,18.22
2023-05-21T10:33:57.195Z,18.30
2023-05-21T10:36:26.003Z,18.32
2023-05-21T10:38:55.047Z,18.35
2023-05-21T10:41:24.879Z,18.40
2023-05-21T10:44:03.792Z,18.50
2023-05-21T10:46:57.691Z,18.57
2023-05-21T10:49:39.578Z,18.63
2023-05-21T10:52:15.516Z,18.67
2023-05-21T10:54:58.095Z,18.71
2023-05-21T10:57:45.701Z,18.76
2023-05-21T11:00:17.016Z,18.77
2023-05-21T11:02:45.833Z,18.83
2023-05-21T11:05:13.738Z,18.88
2023-05-21T11:07:57.818Z,18.90
2023-05-21T11:10:32.837Z,18.94
2023-05-21T11:13:08.063Z,18.93
2023-05-21T11:16:07.274Z,19.05
2023-05-21T11:19:00.495Z,19.06
2023-05-21T11:21:31.246Z,19.07
2023-05-21T11:24:03.942Z,19.12
2023-05-21T11:27:04.376Z,19.15
2023-05-21T11:29:56.687Z,19.22
2023-05-21T11:32:25.922Z,19.28
2023-05-21T11:34:53.726Z,19.34
2023-05-21T11:37:30.120Z,19.39
2023-05-21T11:40:00.028Z,19.44
2023-05-21T11:42:32.590Z,19.47
2023-05-21T11:45:01.585Z,19.50
2023-05-21T11:47:32.221Z,19.54
2023-05-21T11:50:01.701Z,19.57
2023-05-21T11:52:30.420Z,19.61
2023-05-21T11:54:59.869Z,19.65
2023-05-21T11:57:30.912Z,19.71
2023-05-21T11:59:59.714Z,19.75
2023-05-21T12:02:28.807Z,19.78
2023-05-21T12:05:00.217Z,19.81
2023-05-21T12:07:29.985Z,19.83
2023-05-21T12:09:58.042Z,19.89
2023-05-21T12:12:35.316Z,19.96
2023-05-21T12:15:12.529Z,20.03
2023-05-21T12:17:40.406Z,20.11
2023-05-21T12:20:10.791Z,20.13
2023-05-21T12:22:43.136Z,20.14
2023-05-21T12:25:12.055Z,20.16
2023-05-21T12:27:42.032Z,20.17
2023-05-21T12:30:11.127Z,20.19
2023-05-21T12:32:43.724Z,20.21
2023-05-21T12:35:22.655Z,20.22
2023-05-21T12:37:51.760Z,20.26
2023-05-21T12:40:20.041Z,20.32
2023-05-21T12:42:47.911Z,20.40
2023-05-21T12:45:18.439Z,20.45
2023-05-21T12:47:50.673Z,20.51
2023-05-21T12:50:22.241Z,20.58
2023-05-21T12:52:50.033Z,20.64
2023-05-21T12:55:18.358Z,20.69
2023-05-21T12:57:46.567Z,20.78
2023-05-21T13:00:14.581Z,20.88
2023-05-21T13:02:44.782Z,20.95
2023-05-21T13:05:17.897Z,21.00
2023-05-21T13:07:47.924Z,21.03
2023-05-21T13:10:17.208Z,21.02
2023-05-21T13:12:46.018Z,21.05
2023-05-21T13:15:13.928Z,21.06
2023-05-21T13:17:41.788Z,21.05
2023-05-21T13:20:12.401Z,21.04
2023-05-21T13:22:42.835Z,21.04
2023-05-21T13:25:12.753Z,21.09
2023-05-21T13:27:40.538Z,21.11
2023-05-21T13:30:11.328Z,21.15
2023-05-21T13:32:40.038Z,21.18
2023-05-21T13:35:08.748Z,21.20
2023-05-21T13:37:37.153Z,21.23
2023-05-21T13:40:05.873Z,21.25
2023-05-21T13:42:37.780Z,21.29
2023-05-21T13:45:06.163Z,21.35
2023-05-21T13:47:35.631Z,21.40
2023-05-21T13:50:05.254Z,21.41
2023-05-21T13:52:33.004Z,21.39
2023-05-21T13:55:01.032Z,21.39
2023-05-21T13:57:30.849Z,21.42
2023-05-21T14:00:00.909Z,21.47
2023-05-21T14:02:28.805Z,21.50
2023-05-21T14:04:56.682Z,21.54
2023-05-21T14:07:24.429Z,21.58
2023-05-21T14:09:52.583Z,21.59
2023-05-21T14:12:20.689Z,21.62
2023-05-21T14:14:49.802Z,21.66
2023-05-21T14:17:19.063Z,21.71
2023-05-21T14:19:48.231Z,21.74
2023-05-21T14:22:16.002Z,21.76
2023-05-21T14:24:43.752Z,21.77
2023-05-21T14:27:13.164Z,21.76
2023-05-21T14:29:42.476Z,21.76
2023-05-21T14:32:10.329Z,21.80
2023-05-21T14:34:40.366Z,21.83
2023-05-21T14:37:08.212Z,21.86
2023-05-21T14:39:36.021Z,21.90
2023-05-21T14:42:05.233Z,21.90
2023-05-21T14:44:32.967Z,21.94
2023-05-21T14:47:00.868Z,21.98
2023-05-21T14:49:28.701Z,22.00
2023-05-21T14:51:57.869Z,22.06
2023-05-21T14:54:25.631Z,22.09
2023-05-21T14:56:54.235Z,22.13
2023-05-21T14:59:22.121Z,22.17
2023-05-21T15:01:50.176Z,22.18
2023-05-21T15:04:18.003Z,22.15
2023-05-21T15:06:45.968Z,22.19
2023-05-21T15:09:15.103Z,22.21
2023-05-21T15:11:43.942Z,22.19
2023-05-21T15:14:11.715Z,22.20
2023-05-21T15:16:39.611Z,22.14
2023-05-21T15:19:07.544Z,22.20
2023-05-21T15:21:35.422Z,22.22
2023-05-21T15:24:03.194Z,22.23
2023-05-21T15:26:32.497Z,22.23
2023-05-21T15:29:00.271Z,22.26
2023-05-21T15:31:28.054Z,22.28
2023-05-21T15:33:55.854Z,22.30
2023-05-21T15:36:23.627Z,22.30
2023-05-21T15:38:51.404Z,22.29
2023-05-21T15:41:19.242Z,22.29
2023-05-21T15:43:48.485Z,22.29
2023-05-21T15:46:16.333Z,22.35
2023-05-21T15:48:44.154Z,22.39
2023-05-21T15:51:11.910Z,22.42
2023-05-21T15:53:39.703Z,22.42
2023-05-21T15:56:09.094Z,22.42
2023-05-21T15:58:36.883Z,22.39
2023-05-21T16:01:06.168Z,22.38
2023-05-21T16:03:34.008Z,22.37
2023-05-21T16:06:01.913Z,22.42
2023-05-21T16:08:29.715Z,22.41
2023-05-21T16:10:58.100Z,22.51
2023-05-21T16:13:26.472Z,22.50
2023-05-21T16:15:54.312Z,22.48
2023-05-21T16:18:23.466Z,22.48
2023-05-21T16:20:51.316Z,22.49
2023-05-21T16:23:19.133Z,22.48
2023-05-21T16:25:46.904Z,22.47
2023-05-21T16:28:14.696Z,22.46
2023-05-21T16:30:42.570Z,22.45
2023-05-21T16:33:11.565Z,22.51
2023-05-21T16:35:40.771Z,22.49
2023-05-21T16:38:08.641Z,22.46
2023-05-21T16:40:36.522Z,22.49
2023-05-21T16:43:04.311Z,22.48
2023-05-21T16:45:39.757Z,22.48
2023-05-21T16:48:08.163Z,22.47
2023-05-21T16:50:36.061Z,22.48
2023-05-21T16:53:06.815Z,22.49
2023-05-21T16:55:36.303Z,22.50
2023-05-21T16:58:05.718Z,22.52
2023-05-21T17:00:33.600Z,22.56
2023-05-21T17:03:01.468Z,22.55
2023-05-21T17:05:29.356Z,22.56
2023-05-21T17:07:57.242Z,22.56
2023-05-21T17:10:26.489Z,22.56
2023-05-21T17:12:54.532Z,22.54
2023-05-21T17:15:22.434Z,22.56
2023-05-21T17:17:50.301Z,22.57
2023-05-21T17:20:18.351Z,22.59
2023-05-21T17:22:46.166Z,22.59
2023-05-21T17:25:13.970Z,22.58
2023-05-21T17:27:43.136Z,22.58
2023-05-21T17:30:11.560Z,22.58
2023-05-21T17:32:39.421Z,22.59
2023-05-21T17:35:08.310Z,22.59
2023-05-21T17:37:36.111Z,22.57
2023-05-21T17:40:04.350Z,22.57
2023-05-21T17:42:32.252Z,22.57
2023-05-21T17:45:01.424Z,22.56
2023-05-21T17:47:29.200Z,22.57
2023-05-21T17:49:57.039Z,22.60
2023-05-21T17:52:25.641Z,22.62
2023-05-21T17:54:53.518Z,22.62
2023-05-21T17:57:21.437Z,22.61
2023-05-21T17:59:49.256Z,22.62
2023-05-21T18:02:18.420Z,22.62
2023-05-21T18:04:46.213Z,22.62
2023-05-21T18:07:13.989Z,22.61
2023-05-21T18:09:42.819Z,22.60
2023-05-21T18:12:11.011Z,22.59
2023-05-21T18:14:38.862Z,22.60
2023-05-21T18:17:06.993Z,22.60
2023-05-21T18:19:36.201Z,22.60
2023-05-21T18:22:05.070Z,22.60
2023-05-21T18:24:32.868Z,22.58
2023-05-21T18:27:00.923Z,22.56
2023-05-21T18:29:28.735Z,22.56
2023-05-21T18:31:56.613Z,22.57
2023-05-21T18:34:24.459Z,22.55
2023-05-21T18:36:54.543Z,22.56
2023-05-21T18:39:24.832Z,22.58
2023-05-21T18:42:01.552Z,22.58
2023-05-21T18:44:39.956Z,22.57
2023-05-21T18:47:08.384Z,22.58
2023-05-21T18:49:36.532Z,22.59
2023-05-21T18:52:06.791Z,22.59
2023-05-21T18:54:34.685Z,22.60
2023-05-21T18:57:02.504Z,22.60
2023-05-21T18:59:31.265Z,22.59
2023-05-21T19:01:59.173Z,22.59
2023-05-21T19:04:27.433Z,22.58
2023-05-21T19:06:55.260Z,22.58
2023-05-21T19:09:24.489Z,22.57
2023-05-21T19:11:52.452Z,22.56
2023-05-21T19:14:23.263Z,22.55
2023-05-21T19:16:51.080Z,22.53
2023-05-21T19:19:18.952Z,22.52
2023-05-21T19:21:46.882Z,22.47
2023-05-21T19:24:14.685Z,22.42
2023-05-21T19:26:43.865Z,22.36
2023-05-21T19:29:11.948Z,22.33
2023-05-21T19:31:39.745Z,22.29
2023-05-21T19:34:10.536Z,22.28
2023-05-21T19:36:52.150Z,22.27
2023-05-21T19:39:21.146Z,22.23
2023-05-21T19:41:51.635Z,22.23
2023-05-21T19:44:19.534Z,22.09
2023-05-21T19:46:48.591Z,22.21
2023-05-21T19:49:16.442Z,22.21
2023-05-21T19:51:44.313Z,22.20
2023-05-21T19:54:12.178Z,22.19
2023-05-21T19:56:40.057Z,22.19
2023-05-21T19:59:09.249Z,22.18
2023-05-21T20:01:39.528Z,22.17
2023-05-21T20:04:07.825Z,22.17
2023-05-21T20:06:36.081Z,22.16
2023-05-21T20:09:04.016Z,22.14
2023-05-21T20:11:31.996Z,22.12
2023-05-21T20:13:59.807Z,22.13
2023-05-21T20:16:29.975Z,22.10
2023-05-21T20:18:58.363Z,22.09
2023-05-21T20:21:26.280Z,22.07
2023-05-21T20:23:54.236Z,22.05
2023-05-21T20:26:23.191Z,22.02
2023-05-21T20:28:51.030Z,22.01
2023-05-21T20:31:18.945Z,21.96
2023-05-21T20:33:50.371Z,21.91
2023-05-21T20:36:18.499Z,21.86
2023-05-21T20:38:47.166Z,21.83
2023-05-21T20:41:15.305Z,21.78
2023-05-21T20:43:45.480Z,21.77
2023-05-21T20:46:13.803Z,21.74
2023-05-21T20:48:41.759Z,21.69
2023-05-21T20:51:11.144Z,21.66
2023-05-21T20:53:38.894Z,21.63
2023-05-21T20:56:08.075Z,21.56
2023-05-21T20:58:36.166Z,21.53
2023-05-21T21:01:03.960Z,21.52
2023-05-21T21:03:34.180Z,21.53
2023-05-21T21:06:03.065Z,21.52
2023-05-21T21:08:34.587Z,21.50
2023-05-21T21:11:02.433Z,21.47
2023-05-21T21:13:30.156Z,21.47
2023-05-21T21:15:57.900Z,21.43
2023-05-21T21:18:25.688Z,21.39
2023-05-21T21:20:54.016Z,21.34
2023-05-21T21:23:22.153Z,21.34
2023-05-21T21:25:51.432Z,21.31
2023-05-21T21:28:19.953Z,21.30
2023-05-21T21:30:47.762Z,21.29
2023-05-21T21:33:16.620Z,21.28
2023-05-21T21:35:44.559Z,21.26
2023-05-21T21:38:12.342Z,21.25
2023-05-21T21:40:40.318Z,21.25
2023-05-21T21:43:09.644Z,21.20
2023-05-21T21:45:37.466Z,21.20
2023-05-21T21:48:05.880Z,21.10
2023-05-21T21:50:33.706Z,21.14
2023-05-21T21:53:03.596Z,21.12
2023-05-21T21:55:31.458Z,21.10
2023-05-21T21:57:59.231Z,21.08
2023-05-21T22:00:28.525Z,21.07
2023-05-21T22:02:56.794Z,21.03
2023-05-21T22:05:24.705Z,21.03
2023-05-21T22:07:52.889Z,21.02
2023-05-21T22:10:21.298Z,21.01
2023-05-21T22:12:49.020Z,20.99
2023-05-21T22:15:22.837Z,20.97
2023-05-21T22:17:53.453Z,20.92
2023-05-21T22:20:22.316Z,20.93
2023-05-21T22:22:51.353Z,20.90
2023-05-21T22:25:20.268Z,20.88
2023-05-21T22:27:48.068Z,20.84
2023-05-21T22:30:16.055Z,20.84
2023-05-21T22:32:43.832Z,20.82
2023-05-21T22:35:13.584Z,20.81
2023-05-21T22:37:41.484Z,20.80
2023-05-21T22:40:10.817Z,20.79
2023-05-21T22:42:39.171Z,20.78
2023-05-21T22:45:08.424Z,20.77
2023-05-21T22:47:39.695Z,20.76
2023-05-21T22:50:08.501Z,20.74
2023-05-21T22:52:38.175Z,20.72
2023-05-21T22:55:06.644Z,20.67
2023-05-21T22:57:34.670Z,20.64
2023-05-21T23:00:02.487Z,20.64
2023-05-21T23:02:30.419Z,20.63
2023-05-21T23:04:58.724Z,20.62
2023-05-21T23:07:26.737Z,20.61
2023-05-21T23:09:55.951Z,20.59
2023-05-21T23:12:23.801Z,20.56
2023-05-21T23:14:51.608Z,20.54
2023-05-21T23:17:19.352Z,20.49
2023-05-21T23:19:49.943Z,20.48
2023-05-21T23:22:17.712Z,20.44
2023-05-21T23:24:45.627Z,20.43
2023-05-21T23:27:14.771Z,20.42
2023-05-21T23:29:42.626Z,20.41
2023-05-21T23:32:10.509Z,20.40
2023-05-21T23:34:38.341Z,20.38
2023-05-21T23:37:06.258Z,20.31
2023-05-21T23:39:34.071Z,20.34
2023-05-21T23:42:01.958Z,20.30
2023-05-21T23:44:31.159Z,20.26
2023-05-21T23:46:58.917Z,20.25
2023-05-21T23:49:26.712Z,20.24
2023-05-21T23:51:54.625Z,20.21
2023-05-21T23:54:22.412Z,20.17
2023-05-21T23:56:50.179Z,20.13
2023-05-21T23:59:18.570Z,20.01
